Time;durP1;ratioP1;P1;durP2;ratioP2;P2;SDS_P1;SDS_P2;PMS_P1;PMS_P2;Temp;Humidity;BMP_temperature;BMP_pressure;BME280_temperature;BME280_humidity;BME280_pressure;Samples;Min_cycle;Max_cycle;Signal;HPM_P1;HPM_P2
2022/01/30 00:00:19;;;;;;;22.40;10.40;;;;;;;-1.53;63.92;98317.94;5082293;28;20661;-62
2022/01/30 00:02:45;;;;;;;20.55;10.75;;;;;;;-1.66;63.88;98295.00;5088270;28;20093;-59
2022/01/30 00:05:10;;;;;;;19.35;10.20;;;;;;;-1.54;63.77;98313.63;5089307;28;20024;-60
2022/01/30 00:07:36;;;;;;;19.63;10.88;;;;;;;-1.57;63.78;98319.88;5089193;28;20111;-56
2022/01/30 00:10:02;;;;;;;20.85;11.10;;;;;;;-1.59;63.66;98308.63;5090114;28;20524;-56
2022/01/30 00:12:52;;;;;;;21.30;10.50;;;;;;;-1.62;64.26;98312.28;5089294;28;20080;-62
2022/01/30 00:15:18;;;;;;;20.90;11.10;;;;;;;-1.60;63.82;98312.19;5080757;28;20107;-56
2022/01/30 00:17:50;;;;;;;20.65;10.68;;;;;;;-1.64;63.78;98306.28;5068798;28;20093;-61
2022/01/30 00:20:23;;;;;;;19.88;10.23;;;;;;;-1.66;63.66;98288.91;5070827;28;20036;-59
2022/01/30 00:23:11;;;;;;;21.00;10.65;;;;;;;-1.74;63.84;98284.06;5071033;28;20035;-57
2022/01/30 00:25:48;;;;;;;18.38;9.80;;;;;;;-1.67;63.78;98290.69;5070879;28;20029;-58
2022/01/30 00:28:16;;;;;;;21.02;9.70;;;;;;;-1.69;64.00;98289.06;5082458;28;20102;-57
2022/01/30 00:30:42;;;;;;;16.75;8.77;;;;;;;-1.73;63.85;98284.00;5070993;28;20245;-64
2022/01/30 00:33:07;;;;;;;17.95;8.45;;;;;;;-1.77;63.63;98287.72;5070382;28;20464;-57
2022/01/30 00:35:33;;;;;;;17.38;8.90;;;;;;;-1.78;63.12;98277.31;5069655;28;20036;-57
2022/01/30 00:38:00;;;;;;;15.98;8.40;;;;;;;-1.85;63.79;98262.84;5070751;28;20103;-58
2022/01/30 00:40:26;;;;;;;13.15;7.50;;;;;;;-1.88;63.44;98264.69;5077353;28;20032;-59
2022/01/30 00:42:51;;;;;;;11.80;7.05;;;;;;;-1.81;63.04;98265.22;5090991;28;20380;-62
2022/01/30 00:45:17;;;;;;;10.95;6.07;;;;;;;-1.80;62.09;98258.19;5091025;28;20032;-59
2022/01/30 00:47:43;;;;;;;8.65;5.45;;;;;;;-1.79;61.74;98244.13;5090707;28;20040;-60
2022/01/30 00:50:09;;;;;;;7.65;5.43;;;;;;;-2.09;61.57;98195.88;5089640;28;20039;-59
2022/01/30 00:52:34;;;;;;;9.75;5.30;;;;;;;-1.95;61.75;98221.34;5089168;28;20024;-60
2022/01/30 00:55:00;;;;;;;11.82;5.72;;;;;;;-1.94;62.24;98224.84;5079326;28;20396;-60
2022/01/30 00:57:26;;;;;;;7.18;4.15;;;;;;;-1.97;61.72;98217.97;5090708;28;20085;-58
2022/01/30 00:59:51;;;;;;;7.07;4.35;;;;;;;-1.96;61.65;98219.66;5091354;28;20024;-60
2022/01/30 01:02:17;;;;;;;7.03;4.13;;;;;;;-2.02;61.52;98207.75;5089450;28;20127;-57
2022/01/30 01:04:44;;;;;;;5.60;3.58;;;;;;;-1.97;61.66;98212.72;5089466;28;20036;-60
2022/01/30 01:07:15;;;;;;;5.88;3.58;;;;;;;-2.09;61.47;98190.66;5087743;28;20036;-59
2022/01/30 01:09:42;;;;;;;5.97;3.95;;;;;;;-2.00;61.90;98199.78;5090807;28;20058;-60
2022/01/30 01:21:00;;;;;;;4.78;3.42;;;;;;;-1.92;60.99;98187.13;5070248;28;20032;-58
2022/01/30 01:23:33;;;;;;;5.70;3.15;;;;;;;-1.92;61.06;98181.00;5071296;28;20029;-58
2022/01/30 01:26:00;;;;;;;4.78;3.17;;;;;;;-1.98;61.00;98184.81;5080363;28;20430;-58
2022/01/30 01:28:27;;;;;;;5.95;3.30;;;;;;;-2.00;61.06;98180.59;5090855;28;20028;-56
2022/01/30 01:30:53;;;;;;;7.78;3.40;;;;;;;-2.08;61.38;98163.50;5093730;28;20024;-60
2022/01/30 01:33:21;;;;;;;6.80;3.22;;;;;;;-2.01;61.38;98171.88;5089651;28;20030;-60
2022/01/30 01:35:46;;;;;;;4.70;3.20;;;;;;;-2.06;61.45;98151.13;5094710;28;20040;-60
2022/01/30 01:38:14;;;;;;;4.45;2.75;;;;;;;-2.03;61.12;98155.38;5094709;28;20103;-56
2022/01/30 01:40:41;;;;;;;5.05;2.75;;;;;;;-1.99;61.71;98158.69;5094174;28;20032;-58
2022/01/30 01:43:07;;;;;;;4.57;2.67;;;;;;;-1.99;61.35;98156.06;5092303;28;20040;-59
2022/01/30 01:45:37;;;;;;;6.07;3.13;;;;;;;-1.94;61.06;98157.47;5094749;28;20124;-61
2022/01/30 01:48:09;;;;;;;5.25;3.38;;;;;;;-1.98;61.47;98157.75;5094593;28;20040;-62
2022/01/30 01:50:44;;;;;;;7.65;3.40;;;;;;;-1.96;61.41;98148.84;5093789;28;20472;-57
2022/01/30 01:53:13;;;;;;;6.28;3.70;;;;;;;-2.03;61.53;98129.16;5075930;28;20044;-57
2022/01/30 01:55:40;;;;;;;5.65;3.22;;;;;;;-2.23;61.51;98104.06;5074034;28;20036;-55
2022/01/30 01:58:06;;;;;;;6.43;3.58;;;;;;;-2.07;61.23;98136.34;5074107;28;20508;-61
2022/01/30 02:00:33;;;;;;;4.75;2.92;;;;;;;-2.12;61.37;98134.91;5073437;28;20031;-59
2022/01/30 02:02:58;;;;;;;5.65;3.03;;;;;;;-2.18;61.03;98136.94;5080939;28;20479;-59
2022/01/30 02:05:29;;;;;;;7.90;2.95;;;;;;;-2.20;61.46;98143.22;5094620;28;20125;-56
2022/01/30 02:24:23;;;;;;;6.43;3.90;;;;;;;-2.21;61.75;98097.78;5092546;28;20036;-62
2022/01/30 02:26:50;;;;;;;7.13;3.72;;;;;;;-2.22;61.82;98093.47;5093301;28;20028;-57
2022/01/30 02:29:15;;;;;;;6.50;3.50;;;;;;;-2.40;61.52;98052.59;5093281;28;20093;-58
2022/01/30 02:31:42;;;;;;;3.92;2.40;;;;;;;-2.27;61.32;98095.50;5093559;28;20111;-58
2022/01/30 02:34:08;;;;;;;5.25;3.05;;;;;;;-2.31;61.18;98089.59;5089923;28;20066;-61
2022/01/30 02:36:50;;;;;;;4.53;2.38;;;;;;;-2.28;61.99;98085.13;5075721;28;20468;-58
2022/01/30 02:39:18;;;;;;;5.65;2.90;;;;;;;-2.40;61.65;98069.13;5073197;28;20032;-60
2022/01/30 02:41:44;;;;;;;3.75;2.40;;;;;;;-2.39;61.95;98064.75;5072464;28;20024;-57
2022/01/30 02:44:21;;;;;;;4.55;2.55;;;;;;;-2.45;62.00;98063.31;5071400;28;20048;-60
2022/01/30 02:46:50;;;;;;;4.10;2.50;;;;;;;-2.49;61.73;98062.63;5073991;28;20048;-60
2022/01/30 02:51:57;;;;;;;3.60;2.40;;;;;;;-2.47;62.34;98055.53;5072574;28;20812;-59
2022/01/30 02:54:24;;;;;;;5.18;2.45;;;;;;;-2.49;62.37;98057.38;5073248;28;20056;-61
2022/01/30 02:56:50;;;;;;;6.07;2.95;;;;;;;-2.55;62.28;98044.63;5072468;28;20033;-59
2022/01/30 02:59:17;;;;;;;5.95;3.30;;;;;;;-2.43;62.46;98050.09;5071952;28;20035;-59
2022/01/30 03:01:43;;;;;;;5.20;2.97;;;;;;;-2.43;61.86;98037.88;5072700;28;20044;-60
2022/01/30 03:04:08;;;;;;;4.38;2.50;;;;;;;-2.33;62.10;98048.69;5072852;28;20093;-59
2022/01/30 03:06:35;;;;;;;4.40;2.78;;;;;;;-2.33;62.05;98046.06;5072112;28;20024;-60
2022/01/30 03:09:06;;;;;;;6.75;2.75;;;;;;;-2.39;62.51;98033.31;5072375;28;20170;-60
2022/01/30 03:11:32;;;;;;;4.80;3.00;;;;;;;-2.36;61.81;98047.06;5084527;28;20028;-60
2022/01/30 03:13:57;;;;;;;6.32;3.00;;;;;;;-2.39;62.66;98044.63;5072874;28;20031;-60
2022/01/30 03:16:23;;;;;;;5.20;3.10;;;;;;;-2.47;62.89;98034.56;5072155;28;20388;-57
2022/01/30 03:18:49;;;;;;;4.25;2.75;;;;;;;-2.43;62.82;98035.25;5071978;28;20033;-58
2022/01/30 03:21:15;;;;;;;6.65;3.30;;;;;;;-2.42;62.69;98026.44;5072746;28;20029;-58
2022/01/30 03:23:41;;;;;;;4.88;3.00;;;;;;;-2.31;62.33;98033.69;5073348;28;20033;-58
2022/01/30 03:26:07;;;;;;;3.70;2.75;;;;;;;-2.35;62.10;98033.03;5071535;28;20044;-56
2022/01/30 03:28:33;;;;;;;6.95;3.05;;;;;;;-2.40;62.96;98015.88;5071596;28;20032;-57
2022/01/30 03:31:07;;;;;;;5.07;3.35;;;;;;;-2.41;63.24;98020.28;5072583;28;20021;-58
2022/01/30 03:33:33;;;;;;;7.97;4.13;;;;;;;-2.46;63.63;98024.94;5071961;28;20104;-60
2022/01/30 03:35:59;;;;;;;7.07;3.80;;;;;;;-2.57;64.28;98024.69;5074959;28;20793;-57
2022/01/30 03:38:26;;;;;;;5.80;3.58;;;;;;;-2.59;64.31;98011.69;5091985;28;20166;-59
2022/01/30 03:40:52;;;;;;;5.53;3.53;;;;;;;-2.59;64.00;98016.91;5092433;28;20536;-56
2022/01/30 03:43:18;;;;;;;7.25;3.83;;;;;;;-2.56;64.04;98005.41;5092162;28;20055;-56
2022/01/30 03:45:45;;;;;;;5.20;3.42;;;;;;;-2.56;63.83;98001.03;5091411;28;20059;-56
2022/01/30 03:48:12;;;;;;;5.65;3.47;;;;;;;-2.58;64.18;97995.03;5089941;28;20036;-62
2022/01/30 03:50:38;;;;;;;5.22;3.40;;;;;;;-2.59;64.21;97995.97;5091987;28;20039;-59
2022/01/30 03:53:04;;;;;;;7.57;3.72;;;;;;;-2.56;64.24;97994.91;5091453;28;20392;-59
2022/01/30 03:55:29;;;;;;;5.55;3.78;;;;;;;-2.59;64.44;97980.22;5091716;28;20040;-60
2022/01/30 03:57:55;;;;;;;5.78;3.70;;;;;;;-2.60;64.37;97983.78;5091552;28;20034;-56
2022/01/30 04:00:21;;;;;;;4.45;3.08;;;;;;;-2.55;64.51;97980.88;5088843;28;20028;-58
2022/01/30 04:02:47;;;;;;;6.18;3.95;;;;;;;-2.57;64.53;97970.50;5080318;28;20040;-56
2022/01/30 04:05:12;;;;;;;5.40;3.10;;;;;;;-2.54;64.42;97974.72;5091595;28;20128;-53
2022/01/30 04:07:38;;;;;;;6.07;3.35;;;;;;;-2.58;64.66;97965.34;5091323;28;20089;-59
2022/01/30 04:10:05;;;;;;;6.75;3.72;;;;;;;-2.54;64.76;97964.22;5091290;28;20062;-59
2022/01/30 04:12:31;;;;;;;5.43;3.55;;;;;;;-2.63;64.47;97948.13;5086763;28;20052;-54
2022/01/30 04:14:57;;;;;;;5.50;3.05;;;;;;;-2.57;64.55;97952.16;5091098;28;20510;-61
2022/01/30 04:17:23;;;;;;;5.10;3.22;;;;;;;-2.60;64.30;97952.34;5091184;28;20059;-56
2022/01/30 04:19:49;;;;;;;6.75;3.80;;;;;;;-2.61;65.11;97950.66;5091420;28;20024;-61
2022/01/30 04:22:15;;;;;;;7.68;3.78;;;;;;;-2.74;65.03;97926.94;5088971;28;20028;-57
2022/01/30 04:24:41;;;;;;;5.18;3.30;;;;;;;-2.60;65.00;97949.72;5070734;28;20036;-57
2022/01/30 04:27:06;;;;;;;7.90;3.40;;;;;;;-2.58;64.53;97952.25;5071388;28;20024;-58
2022/01/30 04:29:32;;;;;;;6.45;3.65;;;;;;;-2.63;64.93;97955.16;5071187;28;20052;-60
2022/01/30 04:31:58;;;;;;;4.53;2.92;;;;;;;-2.63;64.45;97942.03;5070990;28;20036;-61
2022/01/30 04:34:26;;;;;;;5.68;3.47;;;;;;;-2.54;64.04;97943.28;5072057;28;20513;-59
2022/01/30 04:42:21;;;;;;;5.35;3.45;;;;;;;-2.50;64.73;97939.56;5071496;28;20388;-58
2022/01/30 04:58:27;;;;;;;4.50;3.22;;;;;;;-3.00;63.71;97821.03;5091396;28;20033;-59
2022/01/30 05:03:40;;;;;;;5.95;3.63;;;;;;;-2.61;64.46;97895.63;5091251;28;20027;-61
2022/01/30 05:06:10;;;;;;;5.22;3.40;;;;;;;-2.49;64.37;97907.19;5093682;28;20387;-64
2022/01/30 05:08:36;;;;;;;5.15;3.13;;;;;;;-2.46;64.88;97897.34;5095581;28;20036;-61
2022/01/30 05:11:06;;;;;;;4.80;3.05;;;;;;;-2.48;64.81;97896.59;5093834;28;20032;-61
2022/01/30 05:13:33;;;;;;;5.80;3.10;;;;;;;-2.46;64.16;97904.38;5095222;28;20141;-59
2022/01/30 05:15:59;;;;;;;4.88;3.20;;;;;;;-2.49;63.75;97897.53;5084993;28;20040;-60
2022/01/30 05:18:27;;;;;;;3.83;2.83;;;;;;;-2.53;64.09;97889.94;5074951;28;20402;-58
2022/01/30 05:20:53;;;;;;;5.85;3.13;;;;;;;-2.59;64.04;97899.00;5083210;28;20113;-59
2022/01/30 05:23:19;;;;;;;4.65;3.03;;;;;;;-2.56;64.85;97901.44;5106530;28;20125;-62
2022/01/30 05:25:48;;;;;;;4.78;3.10;;;;;;;-2.50;64.14;97902.88;5100820;28;20122;-59
2022/01/30 05:28:18;;;;;;;3.72;2.45;;;;;;;-2.54;64.32;97888.25;5098200;28;20494;-58
2022/01/30 05:30:44;;;;;;;4.28;2.42;;;;;;;-2.50;64.18;97890.59;5109914;28;20039;-59
2022/01/30 05:33:12;;;;;;;4.35;2.88;;;;;;;-2.53;64.13;97888.16;5097171;28;20036;-60
2022/01/30 05:35:38;;;;;;;4.68;2.85;;;;;;;-2.51;63.79;97894.16;5103768;28;20122;-58
2022/01/30 05:38:04;;;;;;;4.88;2.88;;;;;;;-2.55;64.09;97886.56;5104378;28;20039;-58
2022/01/30 05:40:31;;;;;;;4.78;3.13;;;;;;;-2.52;64.31;97886.41;5101147;28;20039;-59
2022/01/30 05:43:05;;;;;;;6.32;3.40;;;;;;;-2.48;64.36;97888.75;5088475;28;20542;-58
2022/01/30 05:45:38;;;;;;;4.45;2.50;;;;;;;-2.43;63.67;97885.84;5105158;28;20056;-60
2022/01/30 05:48:10;;;;;;;4.43;2.30;;;;;;;-2.39;63.40;97883.91;5099627;28;20036;-57
2022/01/30 05:50:36;;;;;;;6.07;2.85;;;;;;;-2.46;63.52;97889.50;5089181;28;20031;-59
2022/01/30 05:53:02;;;;;;;4.30;2.28;;;;;;;-2.52;63.95;97879.38;5110136;28;20054;-59
2022/01/30 05:55:30;;;;;;;3.53;2.30;;;;;;;-2.48;63.58;97874.81;5100320;28;20076;-55
2022/01/30 05:57:56;;;;;;;5.10;2.80;;;;;;;-2.45;63.95;97885.09;5104475;28;20088;-57
2022/01/30 06:00:21;;;;;;;3.97;2.30;;;;;;;-2.45;63.35;97872.00;5102788;28;20027;-57
2022/01/30 06:02:47;;;;;;;4.90;2.30;;;;;;;-2.61;63.92;97845.88;5096784;28;20036;-59
2022/01/30 06:05:14;;;;;;;5.35;2.30;;;;;;;-2.43;63.49;97871.91;5102455;28;20086;-58
2022/01/30 06:07:48;;;;;;;4.55;2.10;;;;;;;-2.43;63.31;97864.03;5094329;28;20031;-55
2022/01/30 06:10:14;;;;;;;4.38;2.28;;;;;;;-2.36;63.63;97866.22;5099928;28;20020;-56
2022/01/30 06:12:40;;;;;;;4.38;2.55;;;;;;;-2.34;63.47;97868.75;5109930;28;20390;-58
2022/01/30 06:15:06;;;;;;;3.83;2.20;;;;;;;-2.34;63.82;97859.09;5091241;28;20457;-58
2022/01/30 06:17:31;;;;;;;2.97;1.77;;;;;;;-2.21;63.29;97858.38;5088275;28;20491;-57
2022/01/30 06:19:57;;;;;;;3.60;1.80;;;;;;;-2.22;62.95;97865.38;5101797;28;20136;-56
2022/01/30 06:22:22;;;;;;;3.65;1.90;;;;;;;-2.22;63.49;97849.66;5108017;28;20112;-57
2022/01/30 06:24:48;;;;;;;1.92;1.50;;;;;;;-2.18;63.51;97853.78;5096302;28;20043;-60
2022/01/30 06:27:13;;;;;;;3.03;1.30;;;;;;;-2.13;62.66;97857.91;5097999;28;20022;-54
2022/01/30 06:29:39;;;;;;;2.70;1.40;;;;;;;-2.15;62.88;97851.94;5096674;28;20034;-59
2022/01/30 06:32:05;;;;;;;2.58;1.40;;;;;;;-2.20;62.73;97850.41;5093491;28;20121;-60
2022/01/30 06:34:30;;;;;;;4.43;1.95;;;;;;;-2.19;63.02;97852.09;5092951;28;20032;-58
2022/01/30 06:36:56;;;;;;;2.47;1.50;;;;;;;-2.19;62.78;97856.50;5089179;28;20024;-59
2022/01/30 06:39:21;;;;;;;2.72;1.50;;;;;;;-2.26;63.47;97847.31;5080962;28;20033;-60
2022/01/30 06:41:47;;;;;;;4.25;1.95;;;;;;;-2.23;63.51;97858.44;5072351;28;20040;-55
2022/01/30 06:44:12;;;;;;;2.58;1.80;;;;;;;-2.22;63.41;97857.50;5072227;28;20115;-59
2022/01/30 06:46:38;;;;;;;2.17;1.40;;;;;;;-2.19;62.88;97870.44;5074558;28;20082;-57
2022/01/30 06:49:04;;;;;;;2.03;1.55;;;;;;;-2.19;62.48;97865.19;5076543;28;20055;-57
2022/01/30 06:51:29;;;;;;;2.67;1.67;;;;;;;-2.22;63.34;97864.56;5092887;28;20073;-58
2022/01/30 06:53:55;;;;;;;2.15;1.63;;;;;;;-2.22;62.59;97846.19;5093532;28;20482;-60
2022/01/30 06:56:20;;;;;;;2.67;1.48;;;;;;;-2.23;62.73;97860.25;5092931;28;20397;-56
2022/01/30 06:58:45;;;;;;;2.20;1.63;;;;;;;-2.21;62.50;97845.25;5078586;28;20032;-56
2022/01/30 07:01:11;;;;;;;2.85;1.50;;;;;;;-2.32;63.08;97830.19;5072875;28;20035;-56
2022/01/30 07:03:36;;;;;;;2.00;1.58;;;;;;;-2.18;62.82;97853.78;5073231;28;20116;-57
2022/01/30 07:06:02;;;;;;;2.03;1.40;;;;;;;-2.12;63.03;97856.97;5072453;28;20107;-58
2022/01/30 07:08:27;;;;;;;1.42;1.00;;;;;;;-2.09;62.59;97851.53;5075231;28;20036;-59
2022/01/30 07:10:53;;;;;;;2.47;1.25;;;;;;;-2.15;62.53;97860.63;5081947;28;20115;-56
2022/01/30 07:13:18;;;;;;;2.45;1.30;;;;;;;-2.18;62.14;97845.91;5072818;28;20029;-57
2022/01/30 07:15:44;;;;;;;2.80;1.08;;;;;;;-2.19;62.38;97877.47;5072346;28;20028;-60
2022/01/30 07:18:10;;;;;;;2.65;1.33;;;;;;;-2.17;62.54;97842.38;5071925;28;20028;-63
2022/01/30 07:20:35;;;;;;;5.72;1.45;;;;;;;-2.17;62.60;97849.38;5088612;28;20490;-62
2022/01/30 07:23:01;;;;;;;2.53;1.40;;;;;;;-2.14;62.15;97838.72;5092635;28;20395;-60
2022/01/30 07:25:26;;;;;;;2.22;1.27;;;;;;;-2.15;61.90;97831.78;5092471;28;20491;-60
2022/01/30 07:27:52;;;;;;;2.65;1.40;;;;;;;-2.09;61.65;97831.41;5090623;28;20024;-61
2022/01/30 07:30:17;;;;;;;3.75;1.50;;;;;;;-2.08;61.86;97832.25;5082368;28;20101;-58
2022/01/30 07:32:43;;;;;;;3.67;1.80;;;;;;;-2.04;62.13;97834.59;5089410;28;20062;-58
2022/01/30 07:35:08;;;;;;;2.55;1.50;;;;;;;-1.98;61.49;97822.88;5092691;28;20031;-56
2022/01/30 07:37:35;;;;;;;4.35;1.83;;;;;;;-1.94;61.88;97826.16;5091921;28;20032;-58
2022/01/30 07:40:02;;;;;;;4.90;1.60;;;;;;;-1.93;60.94;97825.22;5086305;28;20158;-58
2022/01/30 07:42:29;;;;;;;2.65;1.50;;;;;;;-1.90;61.69;97825.03;5079330;28;20059;-60
2022/01/30 07:44:55;;;;;;;3.40;1.77;;;;;;;-1.93;61.97;97826.06;5091493;28;20471;-57
2022/01/30 07:47:22;;;;;;;3.17;1.75;;;;;;;-2.12;61.83;97799.28;5091088;28;20048;-57
2022/01/30 07:49:51;;;;;;;4.38;1.65;;;;;;;-1.90;61.38;97822.41;5089821;28;20036;-58
2022/01/30 07:52:21;;;;;;;2.13;1.40;;;;;;;-1.84;61.94;97827.25;5091720;28;20032;-60
2022/01/30 07:54:48;;;;;;;1.75;1.13;;;;;;;-1.83;61.78;97830.75;5091144;28;20028;-58
2022/01/30 07:57:14;;;;;;;2.72;1.35;;;;;;;-1.92;62.22;97824.28;5091198;28;20028;-63
2022/01/30 07:59:41;;;;;;;2.42;1.50;;;;;;;-1.93;61.86;97823.44;5089049;28;20055;-55
2022/01/30 08:02:06;;;;;;;3.50;1.55;;;;;;;-1.91;61.72;97818.94;5086790;28;20035;-62
2022/01/30 08:04:32;;;;;;;3.55;1.80;;;;;;;-1.85;61.51;97822.13;5091568;28;20032;-62
2022/01/30 08:06:57;;;;;;;4.38;2.05;;;;;;;-1.85;61.94;97806.38;5091768;28;20035;-64
2022/01/30 08:09:23;;;;;;;2.17;1.40;;;;;;;-1.73;61.23;97816.97;5091661;28;20032;-64
2022/01/30 08:11:48;;;;;;;1.52;1.10;;;;;;;-1.63;60.44;97814.59;5091558;28;20024;-65
2022/01/30 08:14:13;;;;;;;2.30;1.60;;;;;;;-1.63;60.78;97804.09;5086566;28;20073;-63
2022/01/30 08:16:40;;;;;;;2.78;1.10;;;;;;;-1.79;60.17;97792.88;5078903;28;20037;-65
2022/01/30 08:19:05;;;;;;;2.10;1.67;;;;;;;-1.62;59.95;97812.81;5071093;28;20032;-64
2022/01/30 08:21:31;;;;;;;1.55;1.15;;;;;;;-1.60;59.93;97810.91;5070385;28;20035;-65
2022/01/30 08:23:56;;;;;;;1.42;0.93;;;;;;;-1.59;59.61;97821.34;5071354;28;20025;-65
2022/01/30 08:26:22;;;;;;;1.65;1.20;;;;;;;-1.80;59.42;97783.31;5076468;28;20036;-65
2022/01/30 08:28:47;;;;;;;2.28;1.10;;;;;;;-1.58;59.48;97806.41;5091579;28;20496;-65
2022/01/30 08:31:13;;;;;;;2.38;1.35;;;;;;;-1.52;59.28;97805.19;5069635;28;20115;-66
2022/01/30 08:33:39;;;;;;;3.08;1.73;;;;;;;-1.50;59.47;97817.28;5068913;28;20066;-65
2022/01/30 08:36:04;;;;;;;1.75;1.10;;;;;;;-1.46;59.14;97802.16;5068543;28;20143;-66
2022/01/30 08:38:30;;;;;;;2.30;1.75;;;;;;;-1.44;58.55;97802.94;5069338;28;20020;-64
2022/01/30 08:40:55;;;;;;;2.75;1.40;;;;;;;-1.44;59.30;97805.56;5088266;28;20067;-65
2022/01/30 08:43:21;;;;;;;2.35;1.60;;;;;;;-1.45;59.03;97786.34;5087734;28;20112;-65
2022/01/30 08:45:49;;;;;;;2.50;1.60;;;;;;;-1.47;58.98;97792.59;5088616;28;20036;-64
2022/01/30 08:48:15;;;;;;;2.80;1.75;;;;;;;-1.45;58.51;97803.84;5090759;28;20043;-65
2022/01/30 08:50:41;;;;;;;4.35;1.75;;;;;;;-1.43;57.92;97798.50;5087606;28;20032;-63
2022/01/30 08:53:06;;;;;;;2.13;1.48;;;;;;;-1.77;59.11;97778.75;5070372;28;20116;-66
2022/01/30 08:55:33;;;;;;;3.47;1.58;;;;;;;-1.78;59.34;97768.31;5077671;28;20077;-65
2022/01/30 08:57:59;;;;;;;3.25;1.77;;;;;;;-1.62;59.29;97792.66;5090036;28;20028;-65
2022/01/30 09:00:25;;;;;;;3.30;1.92;;;;;;;-1.65;59.28;97794.63;5088609;28;20036;-64
2022/01/30 09:02:51;;;;;;;2.28;1.65;;;;;;;-1.56;59.50;97806.34;5088659;28;20391;-65
2022/01/30 09:05:17;;;;;;;2.10;1.25;;;;;;;-1.47;58.88;97803.97;5099887;28;20545;-67
2022/01/30 09:07:42;;;;;;;2.20;1.58;;;;;;;-1.34;58.58;97785.63;5094191;28;20028;-65
2022/01/30 09:10:10;;;;;;;3.63;1.40;;;;;;;-1.30;58.46;97781.03;5095355;28;20039;-64
2022/01/30 09:12:37;;;;;;;1.45;1.08;;;;;;;-1.06;57.66;97786.47;5098124;28;20615;-68
2022/01/30 09:15:08;;;;;;;2.58;1.20;;;;;;;-0.90;57.18;97785.47;5087657;28;20028;-66
2022/01/30 09:17:34;;;;;;;2.05;1.30;;;;;;;-0.95;57.54;97795.44;5086114;28;20044;-66
2022/01/30 09:20:00;;;;;;;1.52;1.13;;;;;;;-0.98;57.40;97779.84;5089826;28;20039;-65
2022/01/30 09:22:25;;;;;;;2.20;1.60;;;;;;;-0.95;56.84;97784.94;5089465;28;20020;-64
2022/01/30 09:24:51;;;;;;;4.93;1.50;;;;;;;-0.94;56.86;97810.25;5089396;28;20020;-64
2022/01/30 09:27:17;;;;;;;3.58;1.85;;;;;;;-0.96;57.43;97778.81;5090302;28;20096;-64
2022/01/30 09:29:44;;;;;;;3.35;1.83;;;;;;;-0.90;57.07;97767.06;5070684;28;20033;-65
2022/01/30 09:32:10;;;;;;;2.95;1.88;;;;;;;-0.82;57.14;97770.00;5075057;28;20480;-65
2022/01/30 09:34:36;;;;;;;3.28;1.85;;;;;;;-0.80;56.72;97764.66;5089806;28;20078;-65
2022/01/30 09:37:04;;;;;;;2.88;1.80;;;;;;;-0.69;56.90;97753.44;5090342;28;20032;-63
2022/01/30 09:39:29;;;;;;;3.67;2.35;;;;;;;-0.47;56.48;97752.78;5090518;28;20028;-65
2022/01/30 09:41:56;;;;;;;3.00;1.95;;;;;;;-0.01;55.14;97754.00;5087698;28;20040;-65
2022/01/30 09:44:22;;;;;;;3.83;1.85;;;;;;;0.23;53.84;97755.84;5089832;28;20035;-64
2022/01/30 09:46:49;;;;;;;2.35;1.45;;;;;;;0.18;54.28;97748.28;5090111;28;20047;-65
2022/01/30 09:49:16;;;;;;;3.42;1.63;;;;;;;0.36;53.53;97729.47;5090634;28;20115;-65
2022/01/30 09:51:45;;;;;;;4.90;1.30;;;;;;;0.45;53.16;97743.75;5092841;28;20032;-65
2022/01/30 09:54:12;;;;;;;3.15;1.77;;;;;;;0.37;53.12;97737.25;5083909;28;20121;-63
2022/01/30 09:56:38;;;;;;;2.35;1.70;;;;;;;0.27;53.02;97725.72;5092865;28;20976;-62
2022/01/30 09:59:04;;;;;;;2.80;1.58;;;;;;;0.10;53.67;97745.34;5093740;28;20471;-63
2022/01/30 10:01:36;;;;;;;2.95;1.40;;;;;;;-0.01;54.23;97722.41;5093308;28;20113;-71
2022/01/30 10:04:04;;;;;;;3.05;1.80;;;;;;;-0.10;54.37;97729.19;5092106;28;20028;-68
2022/01/30 10:06:35;;;;;;;3.92;1.92;;;;;;;-0.18;54.68;97732.38;5085880;28;20136;-60
2022/01/30 10:09:21;;;;;;;3.60;1.83;;;;;;;-0.02;55.14;97740.00;5093619;28;20028;-59
2022/01/30 10:11:59;;;;;;;5.90;1.98;;;;;;;-0.10;53.63;97721.31;5093997;28;20035;-67
2022/01/30 10:14:25;;;;;;;4.43;2.05;;;;;;;-0.12;54.62;97730.25;5092666;28;20036;-60
2022/01/30 10:16:51;;;;;;;3.50;1.90;;;;;;;-0.12;54.28;97720.59;5093887;28;20054;-67
2022/01/30 10:19:21;;;;;;;3.60;2.00;;;;;;;-0.17;54.18;97715.63;5081193;28;20076;-67
2022/01/30 10:21:48;;;;;;;2.60;1.70;;;;;;;-0.16;54.14;97714.69;5093927;28;20105;-64
2022/01/30 10:24:42;;;;;;;4.07;2.20;;;;;;;-0.18;54.70;97706.06;5093572;28;20024;-74
2022/01/30 10:27:23;;;;;;;3.42;2.08;;;;;;;-0.21;54.58;97708.91;5073579;28;20043;-64
2022/01/30 10:30:05;;;;;;;3.22;2.20;;;;;;;-0.11;54.44;97710.88;5092456;28;20376;-64
2022/01/30 10:32:31;;;;;;;3.00;2.05;;;;;;;-0.17;54.29;97706.88;5090131;28;20032;-55
2022/01/30 10:35:02;;;;;;;2.38;1.83;;;;;;;-0.36;54.05;97668.78;5092834;28;20031;-59
2022/01/30 10:37:28;;;;;;;2.80;1.92;;;;;;;-0.18;54.29;97700.81;5089137;28;20472;-59
2022/01/30 10:40:20;;;;;;;2.70;2.05;;;;;;;-0.15;54.21;97700.59;5072085;28;20153;-68
2022/01/30 10:42:51;;;;;;;4.50;2.10;;;;;;;-0.11;53.52;97701.22;5071197;28;20024;-64
2022/01/30 10:45:31;;;;;;;3.85;2.28;;;;;;;-0.17;53.57;97734.06;5073001;28;20040;-64
2022/01/30 10:48:13;;;;;;;3.78;2.50;;;;;;;-0.31;54.22;97713.13;5089351;28;20040;-55
2022/01/30 10:50:44;;;;;;;4.55;2.00;;;;;;;-0.38;54.21;97710.06;5078971;28;20046;-54
2022/01/30 10:53:16;;;;;;;3.42;2.28;;;;;;;-0.35;54.82;97678.34;5093042;28;20028;-55
2022/01/30 10:55:44;;;;;;;3.50;2.03;;;;;;;-0.24;54.04;97696.00;5092511;28;20119;-57
2022/01/30 10:58:13;;;;;;;3.97;2.03;;;;;;;-0.36;53.92;97673.16;5087264;28;20081;-56
2022/01/30 11:00:43;;;;;;;3.95;2.20;;;;;;;-0.34;54.32;97676.53;5072999;28;20040;-57
2022/01/30 11:03:10;;;;;;;1.75;1.63;;;;;;;-0.35;53.79;97645.94;5083344;28;20039;-57
2022/01/30 11:05:53;;;;;;;3.92;2.15;;;;;;;-0.27;53.98;97669.88;5092610;28;20028;-55
2022/01/30 11:08:23;;;;;;;3.90;2.20;;;;;;;-0.36;54.56;97654.75;5086337;28;20031;-60
2022/01/30 11:11:11;;;;;;;3.10;1.90;;;;;;;-0.33;54.22;97651.91;5073411;28;20056;-63
2022/01/30 11:13:48;;;;;;;5.78;2.25;;;;;;;-0.38;54.22;97652.22;5070627;28;20041;-64
2022/01/30 11:18:59;;;;;;;3.53;2.10;;;;;;;-0.54;54.72;97644.59;5070669;28;20035;-65
2022/01/30 11:21:27;;;;;;;4.15;2.53;;;;;;;-0.61;54.58;97632.84;5071685;28;20107;-65
2022/01/30 11:23:56;;;;;;;3.40;2.30;;;;;;;-0.73;55.18;97648.50;5070849;28;20043;-63
2022/01/30 11:26:23;;;;;;;5.90;2.10;;;;;;;-0.86;55.14;97634.53;5072178;28;20502;-65
2022/01/30 11:28:49;;;;;;;4.78;2.67;;;;;;;-0.86;55.67;97634.53;5071876;28;20028;-65
2022/01/30 11:31:16;;;;;;;4.78;2.33;;;;;;;-0.80;55.82;97642.00;5072479;28;20032;-63
2022/01/30 11:33:44;;;;;;;4.57;2.75;;;;;;;-0.79;55.24;97640.22;5078794;28;20619;-65
2022/01/30 11:36:10;;;;;;;4.00;2.22;;;;;;;-0.88;55.63;97624.13;5086965;28;20391;-65
2022/01/30 11:38:37;;;;;;;3.65;2.40;;;;;;;-0.91;55.61;97619.09;5088174;28;20032;-65
2022/01/30 11:41:12;;;;;;;3.88;2.30;;;;;;;-0.84;55.28;97613.41;5090292;28;20035;-64
2022/01/30 11:43:38;;;;;;;5.53;2.70;;;;;;;-0.96;55.95;97615.13;5091068;28;20047;-65
2022/01/30 11:46:16;;;;;;;5.53;2.60;;;;;;;-1.09;56.19;97570.47;5079890;28;20049;-66
2022/01/30 11:48:42;;;;;;;4.10;2.75;;;;;;;-0.85;56.20;97640.63;5053437;28;20174;-67
2022/01/30 11:51:09;;;;;;;5.55;2.63;;;;;;;-0.75;56.12;97612.78;5070070;28;20063;-65
2022/01/30 11:53:38;;;;;;;5.82;2.58;;;;;;;-0.76;56.44;97590.91;5071255;28;20127;-65
2022/01/30 11:56:04;;;;;;;4.70;2.88;;;;;;;-0.90;55.76;97578.75;5071744;28;20040;-66
2022/01/30 11:58:30;;;;;;;6.20;2.88;;;;;;;-0.63;56.18;97621.59;5082166;28;20384;-67
2022/01/30 12:01:04;;;;;;;7.95;3.53;;;;;;;-0.48;55.40;97601.25;5070177;28;20040;-64
2022/01/30 12:03:37;;;;;;;4.78;2.88;;;;;;;-0.50;55.10;97609.25;5071153;28;20055;-65
2022/01/30 12:06:21;;;;;;;2.70;1.58;;;;;;;-0.39;55.49;97620.81;5070170;28;20499;-65
2022/01/30 12:08:48;;;;;;;5.78;3.10;;;;;;;-0.60;55.48;97605.59;5070141;28;20033;-66
2022/01/30 12:11:39;;;;;;;8.00;2.90;;;;;;;-0.64;55.78;97609.41;5083354;28;20120;-65
2022/01/30 12:14:11;;;;;;;4.75;3.00;;;;;;;-0.68;55.84;97602.69;5091147;28;20561;-67
2022/01/30 12:16:44;;;;;;;5.97;2.95;;;;;;;-0.65;56.15;97599.84;5090308;28;20067;-65
2022/01/30 12:19:13;;;;;;;5.35;2.75;;;;;;;-0.60;55.98;97613.50;5089870;28;20039;-67
2022/01/30 12:21:39;;;;;;;6.18;2.95;;;;;;;-0.68;55.64;97592.19;5091630;28;20051;-66
2022/01/30 12:24:28;;;;;;;4.55;2.90;;;;;;;-0.42;56.25;97627.13;5076867;28;20063;-64
2022/01/30 12:26:55;;;;;;;4.10;2.60;;;;;;;-0.63;55.80;97595.31;5071020;28;20036;-67